Have a Safe July 4th! 

Flight Track Log - Related Links

Times and Time Zones

All times are in EDT time to prevent confusion due to time zone crossing. See the N700QA flight status page for this flight to view local times or setup timezone preferences in your user account.

Time Position Orientation Groundspeed Altitude Reporting Facility
EDT Latitude Longitude Course Direction KTS MPH feet Rate Location/Type
Thu 11:12:24 PM 37.6503 -122.3717 316° Northwest 166 191 1,900  Level Oakland Center
Thu 11:13:25 PM 37.6869 -122.4167 316° Northwest 220 253 5,100 2,780 Climbing Oakland Center
Thu 11:14:27 PM 37.6439 -122.4633 221° Southwest 248 285 7,600 2,634 Climbing Oakland Center
Thu 11:15:28 PM 37.5664 -122.4467 170° South 275 316 10,500 2,557 Climbing Oakland Center
Thu 11:16:29 PM 37.4936 -122.4103 158° South 288 331 12,800 1,869 Climbing Oakland Center
Thu 11:17:30 PM 37.4364 -122.3342 133° Southeast 299 344 14,300 1,561 Climbing Oakland Center
Thu 11:18:32 PM 37.3767 -122.2486 131° Southeast 322 371 16,000 1,512 Climbing Oakland Center
Thu 11:19:33 PM 37.3136 -122.1625 133° Southeast 335 386 17,400 1,475 Climbing Oakland Center
Thu 11:20:34 PM 37.2489 -122.0739 133° Southeast 344 396 19,000 1,574 Climbing Oakland Center
Thu 11:21:35 PM 37.1614 -121.9767 138° Southeast 354 407 20,600 1,328 Climbing Oakland Center
Thu 11:22:36 PM 37.0839 -121.8975 141° Southeast 360 414 21,700 1,171 Climbing Oakland Center
Thu 11:23:38 PM 37.0053 -121.8108 139° Southeast 375 432 23,000 1,220 Climbing Oakland Center
Thu 11:24:39 PM 36.9228 -121.7300 142° Southeast 376 433 24,200 1,131 Climbing Oakland Center
Thu 11:25:40 PM 36.8406 -121.6444 140° Southeast 385 443 25,300 1,033 Climbing Oakland Center
Thu 11:26:41 PM 36.7581 -121.5553 139° Southeast 393 452 26,300 836 Climbing Oakland Center
Thu 11:27:42 PM 36.6719 -121.4669 141° Southeast 403 464 27,000 393 Climbing Oakland Center
Thu 11:28:43 PM 36.5811 -121.3725 140° Southeast 420 483 27,100 49 Climbing Oakland Center
Thu 11:29:45 PM 36.4861 -121.2744 140° Southeast 440 506 27,100  Level Oakland Center
Thu 11:30:46 PM 36.3728 -121.1536 139° Southeast 449 517 27,100  Level Oakland Center
Thu 11:31:47 PM 36.2756 -121.0547 141° Southeast 452 520 27,100  Level Oakland Center
Thu 11:32:48 PM 36.1783 -120.9550 140° Southeast 453 521 27,100  Level Oakland Center
Thu 11:33:49 PM 36.0817 -120.8553 140° Southeast 454 522 27,100  Level Oakland Center
Thu 11:34:50 PM 35.9839 -120.7561 141° Southeast 454 522 27,100  Level Oakland Center
Thu 11:35:52 PM 35.8853 -120.6564 141° Southeast 458 527 27,100  Level Oakland Center
Thu 11:36:53 PM 35.7881 -120.5556 140° Southeast 458 527 27,100  Level Oakland Center
Thu 11:37:54 PM 35.6889 -120.4558 141° Southeast 459 528 27,100 -49 Level Oakland Center
Thu 11:38:55 PM 35.5861 -120.3547 141° Southeast 456 525 27,000 -49 Descending Oakland Center
Thu 11:39:56 PM 35.4883 -120.2553 140° Southeast 455 524 27,000 -443 Level Oakland Center
Thu 11:40:57 PM 35.3867 -120.1531 141° Southeast 458 527 26,100 -934 Descending Oakland Center
Thu 11:41:58 PM 35.2853 -120.0517 141° Southeast 464 534 25,100 -875 Descending Oakland Center
Thu 11:42:33 PM 35.2458 -120.0114 140° Southeast 464 534 24,700 -680 Descending Los Angeles Center
Thu 11:43:35 PM 35.1272 -119.8953 141° Southeast 456 525 24,000 -968 Descending Los Angeles Center
Thu 11:44:37 PM 35.0369 -119.7947 138° Southeast 446 513 22,700 -1,790 Descending Los Angeles Center
Thu 11:45:39 PM 34.9436 -119.6594 130° Southeast 437 503 20,300 -2,129 Descending Los Angeles Center
Thu 11:46:41 PM 34.8650 -119.5533 132° Southeast 426 490 18,300 -1,935 Descending Los Angeles Center
Thu 11:47:43 PM 34.7883 -119.4525 133° Southeast 412 474 16,300 -1,935 Descending Los Angeles Center
Thu 11:48:45 PM 34.7150 -119.3542 132° Southeast 398 458 14,300 -1,951 Descending Los Angeles Center
Thu 11:49:46 PM 34.6453 -119.2606 132° Southeast 379 436 12,300 -1,548 Descending Los Angeles Center
Thu 11:50:49 PM 34.5878 -119.1814 131° Southeast 326 375 11,100 -629 Descending Los Angeles Center
Thu 11:51:50 PM 34.5192 -119.0908 133° Southeast 308 354 11,000 -49 Descending Los Angeles Center
Thu 11:52:52 PM 34.4592 -119.0128 133° Southeast 315 362 11,000 -339 Level Los Angeles Center
Thu 11:53:54 PM 34.4244 -118.9214 115° Southeast 304 350 10,300 -1,024 Descending Los Angeles Center
Thu 11:54:55 PM 34.4106 -118.8467 103° East 290 334 8,900 -1,805 Descending Los Angeles Center
Thu 11:55:57 PM 34.3906 -118.7344 102° East 283 326 6,600 -1,544 Descending Los Angeles Center
Thu 11:57:11 PM 34.3736 -118.6411 102° East 286 329 5,400 -919 Descending Los Angeles Center
Thu 11:58:01 PM 34.3500 -118.5667 111° Southeast 202 232 4,700 -1,086 Descending Southern California TRACON
Thu 11:58:56 PM 34.3167 -118.5167 129° Southeast 166 191 3,500 -1,200 Descending Southern California TRACON
Fri 12:00:01 AM 34.2833 -118.5000 158° South 154 177 2,300 -1,048 Descending Southern California TRACON
Fri 12:01:02 AM 34.2333 -118.4833 165° South 134 154 1,300 -984 Descending Southern California TRACON
Fri 12:03:00 AM 34.2098 -118.4900 180° South  Level Estimated

Login

Don't have an account? Register now (free) for customized features, flight alerts, and more!